KSUN/SUN METAR and TAF weather

Enter ICAO airport designator
Station Type Date Time Source
KSUN METAR 2020/09/28 07:15 UTC NOAA

KSUN 280715Z AUTO 32007KT 10SM CLR 05/00 A3048 RMK AO2


Station Type Date Time Source
KSUN Decoded METAR 2020/09/28 07:15 UTC NOAA

Hailey, Friedman Memorial Airport, ID, United States (KSUN) 43-30N 114-18W
Sep 28, 2020 - 03:15 AM EDT / 2020.09.28 0715 UTC
Wind: from the NW (320 degrees) at 8 MPH (7 KT):0
Visibility: 10 mile(s):0
Sky conditions: clear
Temperature: 41 F (5 C)
Dew Point: 32 F (0 C)
Relative Humidity: 70%
Pressure (altimeter): 30.48 in. Hg (1032 hPa)
ob: KSUN 280715Z AUTO 32007KT 10SM CLR 05/00 A3048 RMK AO2
cycle: 7

Station Type Date Time Source
KSUN TAF 2020/09/28 06:22 UTC NOAA

TAF KSUN 280520Z 2806/2912 32009KT P6SM SKC
FM281800 14011KT P6SM SKC
FM290400 31010KT P6SM SKC
AMD NOT SKED 2806/2809

Example: see airport list